createdAt,value
2017-06-02T00:01:57.694Z,8.03
2017-06-02T00:04:26.124Z,9.83
2017-06-02T00:06:54.641Z,9.32
2017-06-02T00:09:23.549Z,8.42
2017-06-02T00:11:51.949Z,9.90
2017-06-02T00:14:20.398Z,10.28
2017-06-02T00:16:48.884Z,11.15
2017-06-02T00:19:17.381Z,14.58
2017-06-02T00:21:46.689Z,12.32
2017-06-02T00:24:15.036Z,10.48
2017-06-02T00:26:43.312Z,10.98
2017-06-02T00:29:11.632Z,12.43
2017-06-02T00:31:39.917Z,10.68
2017-06-02T00:34:08.243Z,11.63
2017-06-02T00:36:36.532Z,10.98
2017-06-02T00:39:04.820Z,11.88
2017-06-02T00:41:33.224Z,9.80
2017-06-02T00:44:01.507Z,13.36
2017-06-02T00:46:29.788Z,12.36
2017-06-02T00:48:58.099Z,9.66
2017-06-02T00:51:26.375Z,9.70
2017-06-02T00:53:54.784Z,10.04
2017-06-02T00:56:23.063Z,9.80
2017-06-02T00:58:51.351Z,11.02
2017-06-02T01:01:19.776Z,9.10
2017-06-02T01:03:48.055Z,9.82
2017-06-02T01:06:16.332Z,9.88
2017-06-02T01:08:45.140Z,11.25
2017-06-02T01:11:13.428Z,10.25
2017-06-02T01:13:41.720Z,10.83
2017-06-02T01:16:10.033Z,9.92
2017-06-02T01:18:38.312Z,10.55
2017-06-02T01:21:06.615Z,8.45
2017-06-02T01:23:34.905Z,10.70
2017-06-02T01:26:03.320Z,10.40
2017-06-02T01:28:31.609Z,10.85
2017-06-02T01:30:59.893Z,12.42
2017-06-02T01:33:28.304Z,9.52
2017-06-02T01:35:56.591Z,12.52
2017-06-02T01:38:24.880Z,11.52
2017-06-02T01:40:53.183Z,11.40
2017-06-02T01:43:21.458Z,10.70
2017-06-02T01:45:49.807Z,10.55
2017-06-02T01:48:18.083Z,10.84
2017-06-02T01:50:46.372Z,11.16
2017-06-02T01:53:14.679Z,9.58
2017-06-02T01:55:42.967Z,11.52
2017-06-02T01:58:11.441Z,11.44
2017-06-02T02:00:39.731Z,12.23
2017-06-02T02:03:08.021Z,12.32
2017-06-02T02:05:36.335Z,12.57
2017-06-02T02:08:04.625Z,12.67
2017-06-02T02:10:32.939Z,11.42
2017-06-02T02:13:01.228Z,12.63
2017-06-02T02:15:29.545Z,12.02
2017-06-02T02:17:57.860Z,13.80
2017-06-02T02:20:26.148Z,11.77
2017-06-02T02:22:54.468Z,11.88
2017-06-02T02:25:22.748Z,11.14
2017-06-02T02:27:51.066Z,11.95
2017-06-02T02:30:19.356Z,13.38
2017-06-02T02:32:47.668Z,15.02
2017-06-02T02:35:15.959Z,14.33
2017-06-02T02:37:44.287Z,14.46
2017-06-02T02:40:12.567Z,13.48
2017-06-02T02:42:40.852Z,13.40
2017-06-02T02:45:09.170Z,15.76
2017-06-02T02:47:37.548Z,13.02
2017-06-02T02:50:05.840Z,14.05
2017-06-02T02:52:34.156Z,13.47
2017-06-02T02:55:02.451Z,13.52
2017-06-02T02:57:30.739Z,14.40
2017-06-02T02:59:59.156Z,14.77
2017-06-02T03:02:27.436Z,13.88
2017-06-02T03:04:55.720Z,13.90
2017-06-02T03:07:24.051Z,13.28
2017-06-02T03:09:52.339Z,13.80
2017-06-02T03:12:20.626Z,13.50
2017-06-02T03:14:49.204Z,14.26
2017-06-02T03:17:17.488Z,13.93
2017-06-02T03:19:45.775Z,13.82
2017-06-02T03:22:14.093Z,15.87
2017-06-02T03:24:42.407Z,12.92
2017-06-02T03:27:10.693Z,13.82
2017-06-02T03:29:39.013Z,13.47
2017-06-02T03:32:07.304Z,14.57
2017-06-02T03:34:35.643Z,14.87
2017-06-02T03:37:03.931Z,14.60
2017-06-02T03:39:32.224Z,13.88
2017-06-02T03:42:00.547Z,17.46
2017-06-02T03:44:28.835Z,13.82
2017-06-02T03:46:57.116Z,13.94
2017-06-02T03:49:25.444Z,14.14
2017-06-02T03:51:53.724Z,14.16
2017-06-02T03:54:22.010Z,13.78
2017-06-02T03:56:50.425Z,14.06
2017-06-02T03:59:18.719Z,15.03
2017-06-02T04:01:47.005Z,15.12
2017-06-02T04:04:15.660Z,14.22
2017-06-02T04:06:43.952Z,14.12
2017-06-02T04:09:12.235Z,14.94
2017-06-02T04:11:40.564Z,14.12
2017-06-02T04:14:08.863Z,12.88
2017-06-02T04:16:37.156Z,14.07
2017-06-02T04:19:05.460Z,13.64
2017-06-02T04:21:33.747Z,14.36
2017-06-02T04:24:02.286Z,13.86
2017-06-02T04:26:30.592Z,12.90
2017-06-02T04:28:58.872Z,13.58
2017-06-02T04:31:27.196Z,14.18
2017-06-02T04:33:55.476Z,16.64
2017-06-02T04:36:23.756Z,14.40
2017-06-02T04:38:52.172Z,13.56
2017-06-02T04:41:20.448Z,15.12
2017-06-02T04:43:48.727Z,16.90
2017-06-02T04:46:17.181Z,14.58
2017-06-02T04:48:45.467Z,14.86
2017-06-02T04:51:13.752Z,15.56
2017-06-02T04:53:42.060Z,13.92
2017-06-02T04:56:10.385Z,13.62
2017-06-02T04:58:38.671Z,15.02
2017-06-02T05:01:06.955Z,15.06
2017-06-02T05:03:35.260Z,14.22
2017-06-02T05:06:03.544Z,18.98
2017-06-02T05:08:31.863Z,14.74
2017-06-02T05:11:00.148Z,14.00
2017-06-02T05:13:28.536Z,13.88
2017-06-02T05:15:56.915Z,15.04
2017-06-02T05:18:26.016Z,14.48
2017-06-02T05:20:54.314Z,15.24
2017-06-02T05:23:22.877Z,17.24
2017-06-02T05:25:51.155Z,15.90
2017-06-02T05:28:19.435Z,13.94
2017-06-02T05:30:47.749Z,13.44
2017-06-02T05:33:16.040Z,14.04
2017-06-02T05:35:44.364Z,13.32
2017-06-02T05:38:12.840Z,13.20
2017-06-02T05:40:41.119Z,13.24
2017-06-02T05:43:09.400Z,12.36
2017-06-02T05:45:37.725Z,12.42
2017-06-02T05:48:06.011Z,11.40
2017-06-02T05:50:34.295Z,11.96
2017-06-02T05:53:02.608Z,16.74
2017-06-02T05:55:30.929Z,11.62
2017-06-02T05:57:59.217Z,12.06
2017-06-02T06:00:27.501Z,10.44
2017-06-02T06:02:55.803Z,11.26
2017-06-02T06:05:24.084Z,8.92
2017-06-02T06:07:52.640Z,10.62
2017-06-02T06:10:20.919Z,9.04
2017-06-02T06:12:49.293Z,9.54
2017-06-02T06:15:17.882Z,8.20
2017-06-02T06:17:46.465Z,8.36
2017-06-02T06:20:14.866Z,9.20
2017-06-02T06:22:43.429Z,6.80
2017-06-02T06:25:11.805Z,7.58
2017-06-02T06:27:40.116Z,7.76
2017-06-02T06:30:08.451Z,7.30
2017-06-02T06:32:36.737Z,8.34
2017-06-02T06:35:05.088Z,7.40
2017-06-02T06:37:33.419Z,7.82
2017-06-02T06:40:01.776Z,8.64
2017-06-02T06:42:30.143Z,8.50
2017-06-02T06:44:58.532Z,9.40
2017-06-02T06:47:26.812Z,7.46
2017-06-02T06:49:55.092Z,7.38
2017-06-02T06:52:23.416Z,8.22
2017-06-02T06:54:51.692Z,9.90
2017-06-02T06:57:20.016Z,8.08
2017-06-02T06:59:48.320Z,6.54
2017-06-02T07:02:16.627Z,6.68
2017-06-02T07:04:44.908Z,10.46
2017-06-02T07:07:13.328Z,9.98
2017-06-02T07:09:41.708Z,6.34
2017-06-02T07:12:09.980Z,6.94
2017-06-02T07:14:38.304Z,5.86
2017-06-02T07:17:06.640Z,4.96
2017-06-02T07:19:34.911Z,5.76
2017-06-02T07:22:03.296Z,5.80
2017-06-02T07:24:31.572Z,6.12
2017-06-02T07:26:59.847Z,4.76
2017-06-02T07:29:28.327Z,4.22
2017-06-02T07:31:56.712Z,15.46
2017-06-02T07:34:24.996Z,7.86
2017-06-02T07:36:53.369Z,3.72
2017-06-02T07:39:21.644Z,6.20
2017-06-02T07:41:50.123Z,3.78
2017-06-02T07:44:18.608Z,4.38
2017-06-02T07:46:46.890Z,3.66
2017-06-02T07:49:15.217Z,4.06
2017-06-02T07:51:43.497Z,3.82
2017-06-02T07:54:11.816Z,3.28
2017-06-02T07:56:40.122Z,9.42
2017-06-02T07:59:08.402Z,4.30
2017-06-02T08:01:36.753Z,3.48
2017-06-02T08:04:05.131Z,3.94
2017-06-02T08:06:33.411Z,4.60
2017-06-02T08:09:02.089Z,4.70
2017-06-02T08:11:30.364Z,5.72
2017-06-02T08:13:58.648Z,4.10
2017-06-02T08:16:26.956Z,4.52
2017-06-02T08:18:55.263Z,7.40
2017-06-02T08:21:23.580Z,6.22
2017-06-02T08:23:51.887Z,30.18
2017-06-02T08:26:20.163Z,5.40
2017-06-02T08:28:48.715Z,4.40
2017-06-02T08:31:16.996Z,9.64
2017-06-02T08:33:45.371Z,4.92
2017-06-02T08:36:13.852Z,10.38
2017-06-02T08:38:42.227Z,5.46
2017-06-02T08:41:10.612Z,5.32
2017-06-02T08:43:40.014Z,7.20
2017-06-02T08:46:08.402Z,5.52
2017-06-02T08:48:36.775Z,11.58
2017-06-02T08:51:05.156Z,6.28
2017-06-02T08:53:33.432Z,8.38
2017-06-02T08:56:01.813Z,5.82
2017-06-02T08:58:30.135Z,7.94
2017-06-02T09:00:58.415Z,6.16
2017-06-02T09:03:26.695Z,5.82
2017-06-02T09:05:55.432Z,5.88
2017-06-02T09:08:23.708Z,8.30
2017-06-02T09:10:52.187Z,5.78
2017-06-02T09:13:20.771Z,6.08
2017-06-02T09:15:49.147Z,7.14
2017-06-02T09:18:17.632Z,8.76
2017-06-02T09:20:46.012Z,5.62
2017-06-02T09:23:14.289Z,5.92
2017-06-02T09:25:42.675Z,10.62
2017-06-02T09:28:11.047Z,6.10
2017-06-02T09:30:39.428Z,11.54
2017-06-02T09:33:07.752Z,7.90
2017-06-02T09:35:36.031Z,7.42
2017-06-02T09:38:04.355Z,6.76
2017-06-02T09:40:32.740Z,7.02
2017-06-02T09:43:01.015Z,6.98
2017-06-02T09:45:29.396Z,10.96
2017-06-02T09:47:57.881Z,6.06
2017-06-02T09:50:26.261Z,5.72
2017-06-02T09:52:54.539Z,6.34
2017-06-02T09:55:22.916Z,6.20
2017-06-02T09:57:51.296Z,5.84
2017-06-02T10:00:19.769Z,6.58
2017-06-02T10:02:48.043Z,7.58
2017-06-02T10:05:16.324Z,6.48
2017-06-02T10:07:44.646Z,7.76
2017-06-02T10:10:12.931Z,7.34
2017-06-02T10:12:41.209Z,7.12
2017-06-02T10:15:09.528Z,8.08
2017-06-02T10:17:37.802Z,7.68
2017-06-02T10:20:06.072Z,6.82
2017-06-02T10:22:34.368Z,5.96
2017-06-02T10:25:02.651Z,6.68
2017-06-02T10:27:31.645Z,8.44
2017-06-02T10:30:00.223Z,6.00
2017-06-02T10:32:28.500Z,6.54
2017-06-02T10:34:56.767Z,7.28
2017-06-02T10:37:25.067Z,7.18
2017-06-02T10:39:53.344Z,6.96
2017-06-02T10:42:21.649Z,6.46
2017-06-02T10:44:49.927Z,7.02
2017-06-02T10:47:18.235Z,6.10
2017-06-02T10:49:46.539Z,6.52
2017-06-02T10:52:14.815Z,7.28
2017-06-02T10:54:43.120Z,7.82
2017-06-02T10:57:11.476Z,9.70
2017-06-02T10:59:39.929Z,6.26
2017-06-02T11:02:08.239Z,7.04
2017-06-02T11:04:36.520Z,6.94
2017-06-02T11:07:04.879Z,7.20
2017-06-02T11:09:33.200Z,12.56
2017-06-02T11:12:01.476Z,8.34
2017-06-02T11:14:29.824Z,8.32
2017-06-02T11:16:58.140Z,8.56
2017-06-02T11:19:26.419Z,8.14
2017-06-02T11:21:54.760Z,6.66
2017-06-02T11:24:23.131Z,7.62
2017-06-02T11:26:51.520Z,7.02
2017-06-02T11:29:19.840Z,9.04
2017-06-02T11:31:48.172Z,6.56
2017-06-02T11:34:16.438Z,6.00
2017-06-02T11:36:46.563Z,6.52
2017-06-02T11:39:14.844Z,6.28
2017-06-02T11:41:43.115Z,6.56
2017-06-02T11:44:11.417Z,6.88
2017-06-02T11:46:39.780Z,6.28
2017-06-02T11:49:08.151Z,6.76
2017-06-02T11:51:36.642Z,6.46
2017-06-02T11:54:04.917Z,9.40
2017-06-02T11:56:33.292Z,5.82
2017-06-02T11:59:01.776Z,5.90
2017-06-02T12:01:30.052Z,5.66
2017-06-02T12:03:58.332Z,6.12
2017-06-02T12:06:26.644Z,5.82
2017-06-02T12:08:54.920Z,5.34
2017-06-02T12:11:23.196Z,6.06
2017-06-02T12:13:51.495Z,5.82
2017-06-02T12:16:19.776Z,7.92
2017-06-02T12:18:48.195Z,7.68
2017-06-02T12:21:16.463Z,8.80
2017-06-02T12:23:44.731Z,8.98
2017-06-02T12:26:13.035Z,7.08
2017-06-02T12:28:41.411Z,7.36
2017-06-02T12:31:09.696Z,7.96
2017-06-02T12:33:38.004Z,8.04
2017-06-02T12:36:06.339Z,6.42
2017-06-02T12:38:34.643Z,7.84
2017-06-02T12:41:02.920Z,7.50
2017-06-02T12:43:31.276Z,6.92
2017-06-02T12:45:59.756Z,7.38
2017-06-02T12:48:28.031Z,6.46
2017-06-02T12:50:56.409Z,6.46
2017-06-02T12:53:24.723Z,9.36
2017-06-02T12:55:53.000Z,8.62
2017-06-02T12:58:21.275Z,7.86
2017-06-02T13:00:49.620Z,7.90
2017-06-02T13:03:17.995Z,6.68
2017-06-02T13:05:46.268Z,7.56
2017-06-02T13:08:14.655Z,7.70
2017-06-02T13:10:43.036Z,7.08
2017-06-02T13:13:11.332Z,6.68
2017-06-02T13:15:39.635Z,7.18
2017-06-02T13:18:08.171Z,7.24
2017-06-02T13:20:36.447Z,7.88
2017-06-02T13:23:04.731Z,8.10
2017-06-02T13:25:33.036Z,7.22
2017-06-02T13:28:01.383Z,11.30
2017-06-02T13:30:29.695Z,7.94
2017-06-02T13:32:57.963Z,7.50
2017-06-02T13:35:26.316Z,7.54
2017-06-02T13:37:54.616Z,6.70
2017-06-02T13:40:23.271Z,6.80
2017-06-02T13:42:51.563Z,8.12
2017-06-02T13:45:19.932Z,7.00
2017-06-02T13:47:48.315Z,6.44
2017-06-02T13:50:16.583Z,8.00
2017-06-02T13:52:44.968Z,7.22
2017-06-02T13:55:13.241Z,7.90
2017-06-02T13:57:41.556Z,8.22
2017-06-02T14:00:09.827Z,7.14
2017-06-02T14:02:38.186Z,8.60
2017-06-02T14:05:06.487Z,8.98
2017-06-02T14:07:34.787Z,5.72
2017-06-02T14:10:03.121Z,9.26
2017-06-02T14:12:31.497Z,8.80
2017-06-02T14:14:59.771Z,9.36
2017-06-02T14:17:28.152Z,9.66
2017-06-02T14:19:56.626Z,7.02
2017-06-02T14:22:24.904Z,9.18
2017-06-02T14:24:53.188Z,9.78
2017-06-02T14:27:21.667Z,8.76
2017-06-02T14:29:50.044Z,9.52
2017-06-02T14:32:18.324Z,8.78
2017-06-02T14:34:46.808Z,7.46
2017-06-02T14:37:15.090Z,8.74
2017-06-02T14:39:43.470Z,7.64
2017-06-02T14:42:11.845Z,8.94
2017-06-02T14:44:40.125Z,6.82
2017-06-02T14:47:08.404Z,8.12
2017-06-02T14:49:36.712Z,7.64
2017-06-02T14:52:04.994Z,6.90
2017-06-02T14:54:33.545Z,8.06
2017-06-02T14:57:01.829Z,6.74
2017-06-02T14:59:30.193Z,8.96
2017-06-02T15:01:58.777Z,8.96
2017-06-02T15:04:27.056Z,8.46
2017-06-02T15:06:55.346Z,7.78
2017-06-02T15:09:23.657Z,8.88
2017-06-02T15:11:51.937Z,8.48
2017-06-02T15:14:54.673Z,7.53
2017-06-02T15:17:22.189Z,9.60
2017-06-02T15:19:49.693Z,8.30
2017-06-02T15:22:17.248Z,8.63
2017-06-02T15:24:44.756Z,7.23
2017-06-02T15:27:12.265Z,6.77
2017-06-02T15:29:39.829Z,6.27
2017-06-02T15:32:07.391Z,5.93
2017-06-02T15:34:34.925Z,6.30
2017-06-02T15:37:02.436Z,7.07
2017-06-02T15:39:29.950Z,7.00
2017-06-02T15:41:57.493Z,5.33
2017-06-02T15:44:25.764Z,6.17
2017-06-02T15:46:54.177Z,6.60
2017-06-02T15:49:21.748Z,6.70
2017-06-02T15:51:49.252Z,8.93
2017-06-02T15:54:16.797Z,7.37
2017-06-02T15:56:44.301Z,8.23
2017-06-02T15:59:11.805Z,9.60
2017-06-02T16:01:39.356Z,9.20
2017-06-02T16:04:06.872Z,8.80
2017-06-02T16:06:35.148Z,9.50
2017-06-02T16:09:03.444Z,9.47
2017-06-02T16:11:31.013Z,9.07
2017-06-02T16:13:58.529Z,11.30
2017-06-02T16:16:26.037Z,10.30
2017-06-02T16:18:53.577Z,10.80
2017-06-02T16:21:21.151Z,9.00
2017-06-02T16:23:48.755Z,11.00
2017-06-02T16:26:16.269Z,9.63
2017-06-02T16:28:43.813Z,10.60
2017-06-02T16:31:11.329Z,10.13
2017-06-02T16:33:38.880Z,10.00
2017-06-02T16:36:06.389Z,8.87
2017-06-02T16:38:33.964Z,9.20
2017-06-02T16:41:01.495Z,9.70
2017-06-02T16:43:30.117Z,10.30
2017-06-02T16:45:57.663Z,7.77
2017-06-02T16:48:25.173Z,9.00
2017-06-02T16:50:52.690Z,8.10
2017-06-02T16:53:20.221Z,8.70
2017-06-02T16:55:48.656Z,8.70
2017-06-02T16:58:16.165Z,7.90
2017-06-02T17:00:44.440Z,8.83
2017-06-02T17:03:12.845Z,8.40
2017-06-02T17:05:40.352Z,7.77
2017-06-02T17:08:07.864Z,7.57
2017-06-02T17:10:35.427Z,8.43
2017-06-02T17:13:02.985Z,6.37
2017-06-02T17:15:30.493Z,7.97
2017-06-02T17:17:58.054Z,8.07
2017-06-02T17:20:25.560Z,7.30
2017-06-02T17:22:53.065Z,7.10
2017-06-02T17:25:20.617Z,8.23
2017-06-02T17:27:48.124Z,8.83
2017-06-02T17:30:15.632Z,7.20
2017-06-02T17:32:43.170Z,8.13
2017-06-02T17:35:10.721Z,6.70
2017-06-02T17:37:38.281Z,7.00
2017-06-02T17:40:05.785Z,6.50
2017-06-02T17:42:33.320Z,8.80
2017-06-02T17:45:00.824Z,7.00
2017-06-02T17:47:29.133Z,7.57
2017-06-02T17:49:56.673Z,8.90
2017-06-02T17:52:24.262Z,6.60
2017-06-02T17:54:51.772Z,6.80
2017-06-02T17:57:20.072Z,11.33
2017-06-02T17:59:47.650Z,8.93
2017-06-02T18:02:15.185Z,8.00
2017-06-02T18:04:42.774Z,10.83
2017-06-02T18:07:10.333Z,9.60
2017-06-02T18:09:37.895Z,11.17
2017-06-02T18:12:05.454Z,12.40
2017-06-02T18:14:33.108Z,15.17
2017-06-02T18:17:00.669Z,17.00
2017-06-02T18:19:28.228Z,19.47
2017-06-02T18:21:55.783Z,20.77
2017-06-02T18:24:23.359Z,20.43
2017-06-02T18:26:50.868Z,23.83
2017-06-02T18:29:18.579Z,26.10
2017-06-02T18:31:46.138Z,28.07
2017-06-02T18:34:13.703Z,30.33
2017-06-02T18:36:41.265Z,32.67
2017-06-02T18:39:08.819Z,33.63
2017-06-02T18:41:36.384Z,36.73
2017-06-02T18:44:04.050Z,34.13
2017-06-02T18:46:31.605Z,37.93
2017-06-02T18:48:59.115Z,43.47
2017-06-02T18:51:26.648Z,44.77
2017-06-02T18:53:54.162Z,44.77
2017-06-02T18:56:21.715Z,41.60
2017-06-02T18:58:49.992Z,42.13
2017-06-02T19:01:18.268Z,42.20
2017-06-02T19:03:46.583Z,40.93
2017-06-02T19:06:14.107Z,44.13
2017-06-02T19:08:41.637Z,40.43
2017-06-02T19:11:09.665Z,41.60
2017-06-02T19:13:37.184Z,40.80
2017-06-02T19:16:04.769Z,40.67
2017-06-02T19:18:32.284Z,38.67
2017-06-02T19:20:59.800Z,39.60
2017-06-02T19:23:28.244Z,39.13
2017-06-02T19:25:56.528Z,35.90
2017-06-02T19:28:24.052Z,37.30
2017-06-02T19:30:51.605Z,39.07
2017-06-02T19:33:19.121Z,41.37
2017-06-02T19:35:46.682Z,41.97
2017-06-02T19:38:15.112Z,42.90
2017-06-02T19:40:42.628Z,44.07
2017-06-02T19:43:10.188Z,41.17
2017-06-02T19:45:37.704Z,40.87
2017-06-02T19:48:05.221Z,40.87
2017-06-02T19:50:32.776Z,42.37
2017-06-02T19:53:00.292Z,45.93
2017-06-02T19:55:27.802Z,56.30
2017-06-02T19:57:55.565Z,51.33
2017-06-02T20:00:23.088Z,48.60
2017-06-02T20:02:50.610Z,52.73
2017-06-02T20:05:18.356Z,47.07
2017-06-02T20:07:45.880Z,48.90
2017-06-02T20:10:13.396Z,50.73
2017-06-02T20:12:40.953Z,45.20
2017-06-02T20:15:08.464Z,43.57
2017-06-02T20:17:35.978Z,46.40
2017-06-02T20:20:03.664Z,46.67
2017-06-02T20:22:31.945Z,54.07
2017-06-02T20:25:00.237Z,49.60
2017-06-02T20:27:27.888Z,48.87
2017-06-02T20:29:56.173Z,48.00
2017-06-02T20:32:23.696Z,48.90
2017-06-02T20:34:51.240Z,49.07
2017-06-02T20:37:18.764Z,58.57
2017-06-02T20:39:46.417Z,54.67
2017-06-02T20:42:13.936Z,50.00
2017-06-02T20:44:41.458Z,55.03
2017-06-02T20:47:09.226Z,49.73
2017-06-02T20:49:36.740Z,51.83
2017-06-02T20:52:05.025Z,50.40
2017-06-02T20:54:33.352Z,48.40
2017-06-02T20:57:00.869Z,53.77
2017-06-02T20:59:28.388Z,55.47
2017-06-02T21:01:55.946Z,59.67
2017-06-02T21:04:23.460Z,58.67
2017-06-02T21:06:50.977Z,55.37
2017-06-02T21:09:18.617Z,55.80
2017-06-02T21:11:46.134Z,52.57
2017-06-02T21:14:13.652Z,59.17
2017-06-02T21:16:41.228Z,54.73
2017-06-02T21:19:08.736Z,54.20
2017-06-02T21:21:36.255Z,52.43
2017-06-02T21:24:04.564Z,54.93
2017-06-02T21:26:32.071Z,53.90
2017-06-02T21:28:59.579Z,52.20
2017-06-02T21:31:27.118Z,51.77
2017-06-02T21:33:54.628Z,49.43
2017-06-02T21:36:22.363Z,47.53
2017-06-02T21:38:49.872Z,50.03
2017-06-02T21:41:17.383Z,51.90
2017-06-02T21:43:45.148Z,60.20
2017-06-02T21:46:12.665Z,59.37
2017-06-02T21:48:40.176Z,54.03
2017-06-02T21:51:07.715Z,50.70
2017-06-02T21:53:35.252Z,43.93
2017-06-02T21:56:04.452Z,46.70
2017-06-02T21:58:32.752Z,45.93
2017-06-02T22:01:00.308Z,44.70
2017-06-02T22:03:27.816Z,40.47
2017-06-02T22:05:55.332Z,41.80
2017-06-02T22:08:22.972Z,41.00
2017-06-02T22:10:51.252Z,42.15
2017-06-02T22:13:18.767Z,40.30
2017-06-02T22:15:46.315Z,41.97
2017-06-02T22:18:13.831Z,43.38
2017-06-02T22:20:41.488Z,41.58
2017-06-02T22:23:09.041Z,40.97
2017-06-02T22:25:37.323Z,36.97
2017-06-02T22:28:05.836Z,35.35
2017-06-02T22:30:33.347Z,40.93
2017-06-02T22:33:00.864Z,42.62
2017-06-02T22:35:28.416Z,38.00
2017-06-02T22:37:55.924Z,36.37
2017-06-02T22:40:23.462Z,38.20
2017-06-02T22:42:51.024Z,35.20
2017-06-02T22:45:18.539Z,33.90
2017-06-02T22:47:46.056Z,34.97
2017-06-02T22:50:13.624Z,32.65
2017-06-02T22:52:41.143Z,36.30
2017-06-02T22:55:08.656Z,35.43
2017-06-02T22:57:36.960Z,36.83
2017-06-02T23:00:04.603Z,37.30
2017-06-02T23:02:32.887Z,38.67
2017-06-02T23:05:00.399Z,38.03
2017-06-02T23:07:27.944Z,36.65
2017-06-02T23:09:55.457Z,33.00
2017-06-02T23:12:23.103Z,31.70
2017-06-02T23:14:51.388Z,34.25
2017-06-02T23:17:19.672Z,35.17
2017-06-02T23:19:47.980Z,34.67
2017-06-02T23:22:15.491Z,34.40
2017-06-02T23:24:43.780Z,32.28
2017-06-02T23:27:12.107Z,31.75
2017-06-02T23:29:39.624Z,30.70
2017-06-02T23:32:07.144Z,31.30
2017-06-02T23:34:34.680Z,28.90
2017-06-02T23:37:02.236Z,28.12
2017-06-02T23:39:29.752Z,27.85
2017-06-02T23:41:58.036Z,26.30
2017-06-02T23:44:26.379Z,28.23
2017-06-02T23:46:53.896Z,26.55
2017-06-02T23:49:21.408Z,30.83
2017-06-02T23:51:48.979Z,28.02
2017-06-02T23:54:17.263Z,28.87
2017-06-02T23:56:45.544Z,28.55
2017-06-02T23:59:13.851Z,29.50
